createdAt,value
2018-03-11T00:02:10.989Z,10.47
2018-03-11T00:04:38.388Z,9.47
2018-03-11T00:07:05.824Z,9.50
2018-03-11T00:09:33.264Z,9.87
2018-03-11T00:12:00.737Z,10.73
2018-03-11T00:14:28.147Z,10.17
2018-03-11T00:16:55.578Z,10.53
2018-03-11T00:19:23.776Z,13.23
2018-03-11T00:21:51.220Z,12.77
2018-03-11T00:24:18.662Z,12.87
2018-03-11T00:26:46.082Z,12.30
2018-03-11T00:29:13.532Z,12.50
2018-03-11T00:31:40.976Z,11.33
2018-03-11T00:34:08.389Z,12.00
2018-03-11T00:36:36.603Z,11.77
2018-03-11T00:39:04.039Z,11.03
2018-03-11T00:41:31.484Z,11.30
2018-03-11T00:43:58.928Z,11.73
2018-03-11T00:46:26.379Z,12.47
2018-03-11T00:48:53.796Z,11.97
2018-03-11T00:51:21.227Z,13.13
2018-03-11T00:53:48.670Z,16.20
2018-03-11T00:56:16.111Z,14.03
2018-03-11T00:58:43.537Z,15.17
2018-03-11T01:01:10.970Z,14.70
2018-03-11T01:03:39.172Z,13.27
2018-03-11T01:06:06.624Z,11.63
2018-03-11T01:08:34.051Z,13.00
2018-03-11T01:11:01.479Z,13.20
2018-03-11T01:13:28.916Z,13.37
2018-03-11T01:15:56.355Z,12.70
2018-03-11T01:18:23.777Z,13.00
2018-03-11T01:20:51.980Z,13.07
2018-03-11T01:23:19.412Z,14.47
2018-03-11T01:25:46.863Z,12.50
2018-03-11T01:28:14.296Z,12.90
2018-03-11T01:30:41.738Z,13.63
2018-03-11T01:33:09.164Z,13.33
2018-03-11T01:35:36.601Z,14.40
2018-03-11T01:38:04.773Z,12.90
2018-03-11T01:40:32.243Z,13.07
2018-03-11T01:42:59.675Z,15.23
2018-03-11T01:45:27.107Z,13.17
2018-03-11T01:47:54.549Z,12.23
2018-03-11T01:50:21.982Z,14.03
2018-03-11T01:53:01.228Z,12.83
2018-03-11T01:55:28.664Z,12.00
2018-03-11T01:57:56.112Z,14.67
2018-03-11T02:00:23.524Z,15.40
2018-03-11T02:02:50.977Z,14.90
2018-03-11T02:05:18.428Z,16.33
2018-03-11T02:07:45.863Z,14.47
2018-03-11T02:10:13.296Z,14.83
2018-03-11T02:12:40.734Z,13.97
2018-03-11T02:15:08.176Z,12.63
2018-03-11T02:17:35.608Z,13.57
2018-03-11T02:20:03.072Z,15.10
2018-03-11T02:22:30.519Z,14.70
2018-03-11T02:24:57.944Z,14.97
2018-03-11T02:27:25.369Z,14.40
2018-03-11T02:29:52.806Z,15.60
2018-03-11T02:32:20.989Z,16.77
2018-03-11T02:34:48.413Z,17.27
2018-03-11T02:37:15.853Z,19.00
2018-03-11T02:39:44.019Z,20.03
2018-03-11T02:42:11.462Z,16.43
2018-03-11T02:44:38.882Z,16.40
2018-03-11T02:47:06.375Z,14.63
2018-03-11T02:49:34.503Z,17.40
2018-03-11T02:52:01.984Z,15.43
2018-03-11T02:54:29.415Z,13.63
2018-03-11T02:56:56.848Z,15.27
2018-03-11T02:59:24.272Z,14.10
2018-03-11T03:01:51.710Z,14.63
2018-03-11T03:04:19.191Z,13.93
2018-03-11T03:06:46.624Z,13.83
2018-03-11T03:09:14.044Z,13.70
2018-03-11T03:11:41.479Z,13.93
2018-03-11T03:14:08.916Z,13.30
2018-03-11T03:16:36.363Z,12.23
2018-03-11T03:19:03.816Z,12.87
2018-03-11T03:21:31.252Z,13.43
2018-03-11T03:23:58.680Z,13.93
2018-03-11T03:26:26.117Z,14.67
2018-03-11T03:28:53.540Z,15.03
2018-03-11T03:31:21.729Z,14.20
2018-03-11T03:33:49.176Z,12.37
2018-03-11T03:36:16.637Z,14.07
2018-03-11T03:38:44.068Z,13.53
2018-03-11T03:41:11.484Z,14.33
2018-03-11T03:43:38.920Z,14.10
2018-03-11T03:46:06.359Z,14.23
2018-03-11T03:48:33.780Z,13.63
2018-03-11T03:51:01.984Z,13.50
2018-03-11T03:53:29.422Z,16.00
2018-03-11T03:55:56.860Z,14.33
2018-03-11T03:58:24.312Z,12.83
2018-03-11T04:00:51.732Z,13.27
2018-03-11T04:03:19.160Z,13.77
2018-03-11T04:05:46.602Z,14.43
2018-03-11T04:08:14.816Z,13.83
2018-03-11T04:10:42.224Z,13.03
2018-03-11T04:13:09.668Z,12.10
2018-03-11T04:15:37.095Z,11.87
2018-03-11T04:18:04.561Z,11.90
2018-03-11T04:20:31.988Z,12.47
2018-03-11T04:22:59.424Z,12.03
2018-03-11T04:25:26.871Z,13.70
2018-03-11T04:27:54.313Z,14.33
2018-03-11T04:30:21.766Z,13.83
2018-03-11T04:32:49.185Z,14.83
2018-03-11T04:35:16.618Z,14.37
2018-03-11T04:37:44.056Z,13.67
2018-03-11T04:40:12.268Z,13.27
2018-03-11T04:42:39.681Z,13.03
2018-03-11T04:45:07.120Z,14.20
2018-03-11T04:47:34.559Z,13.40
2018-03-11T04:50:02.042Z,13.47
2018-03-11T04:52:29.476Z,12.93
2018-03-11T04:54:56.887Z,12.93
2018-03-11T04:57:24.323Z,13.87
2018-03-11T04:59:51.760Z,13.03
2018-03-11T05:02:19.205Z,14.00
2018-03-11T05:04:46.636Z,13.67
2018-03-11T05:07:14.068Z,14.50
2018-03-11T05:09:42.272Z,13.60
2018-03-11T05:12:09.720Z,14.07
2018-03-11T05:14:37.172Z,12.33
2018-03-11T05:17:04.576Z,14.97
2018-03-11T05:19:32.012Z,13.30
2018-03-11T05:21:59.469Z,13.13
2018-03-11T05:24:26.896Z,12.57
2018-03-11T05:26:54.321Z,12.13
2018-03-11T05:29:22.520Z,11.77
2018-03-11T05:31:49.956Z,12.10
2018-03-11T05:34:17.391Z,11.37
2018-03-11T05:36:44.830Z,13.77
2018-03-11T05:39:12.279Z,11.77
2018-03-11T05:41:39.760Z,12.87
2018-03-11T05:44:07.199Z,12.43
2018-03-11T05:46:35.397Z,11.47
2018-03-11T05:49:02.839Z,13.70
2018-03-11T05:51:30.272Z,12.33
2018-03-11T05:53:58.464Z,12.70
2018-03-11T05:56:25.908Z,12.70
2018-03-11T05:58:53.332Z,13.07
2018-03-11T06:01:20.767Z,11.07
2018-03-11T06:03:48.187Z,11.77
2018-03-11T06:06:16.416Z,13.07
2018-03-11T06:08:43.835Z,13.10
2018-03-11T06:11:11.268Z,11.53
2018-03-11T06:13:38.688Z,9.73
2018-03-11T06:16:06.124Z,8.80
2018-03-11T06:18:34.318Z,8.80
2018-03-11T06:21:01.765Z,9.50
2018-03-11T06:23:29.180Z,10.00
2018-03-11T06:25:56.600Z,8.80
2018-03-11T06:28:24.786Z,9.73
2018-03-11T06:30:52.224Z,8.93
2018-03-11T06:33:19.648Z,9.13
2018-03-11T06:35:47.873Z,7.97
2018-03-11T06:38:17.116Z,8.40
2018-03-11T06:40:44.536Z,7.03
2018-03-11T06:43:12.737Z,7.07
2018-03-11T06:45:40.165Z,7.37
2018-03-11T06:48:07.584Z,7.90
2018-03-11T06:50:35.014Z,8.23
2018-03-11T06:53:03.210Z,7.03
2018-03-11T06:55:30.618Z,6.67
2018-03-11T06:57:58.048Z,6.17
2018-03-11T07:00:26.228Z,6.40
2018-03-11T07:02:53.665Z,6.87
2018-03-11T07:05:21.128Z,6.10
2018-03-11T07:07:48.516Z,8.83
2018-03-11T07:10:15.939Z,6.60
2018-03-11T07:12:43.361Z,6.60
2018-03-11T07:15:10.799Z,6.93
2018-03-11T07:17:38.204Z,7.17
2018-03-11T07:20:06.412Z,7.37
2018-03-11T07:22:33.857Z,7.03
2018-03-11T07:25:01.276Z,6.67
2018-03-11T07:27:28.692Z,7.33
2018-03-11T07:29:56.116Z,8.43
2018-03-11T07:32:24.296Z,7.10
2018-03-11T07:34:51.752Z,6.77
2018-03-11T07:37:19.160Z,7.43
2018-03-11T07:39:47.352Z,7.87
2018-03-11T07:42:14.779Z,7.63
2018-03-11T07:44:42.201Z,7.70
2018-03-11T07:47:10.386Z,7.10
2018-03-11T07:49:37.802Z,7.37
2018-03-11T07:52:05.991Z,8.27
2018-03-11T07:54:33.435Z,7.60
2018-03-11T07:57:01.608Z,7.80
2018-03-11T07:59:29.020Z,7.30
2018-03-11T08:01:56.494Z,8.53
2018-03-11T08:04:23.923Z,7.17
2018-03-11T08:06:51.340Z,7.97
2018-03-11T08:09:19.544Z,8.40
2018-03-11T08:11:46.953Z,8.83
2018-03-11T08:14:14.373Z,8.43
2018-03-11T08:16:42.562Z,8.47
2018-03-11T08:19:09.996Z,7.17
2018-03-11T08:21:37.420Z,6.97
2018-03-11T08:24:05.604Z,7.93
2018-03-11T08:26:33.020Z,7.60
2018-03-11T08:29:01.231Z,7.80
2018-03-11T08:31:28.640Z,8.10
2018-03-11T08:33:56.064Z,7.10
2018-03-11T08:36:24.252Z,6.40
2018-03-11T08:38:51.700Z,5.63
2018-03-11T08:41:19.111Z,5.13
2018-03-11T08:43:46.539Z,7.00
2018-03-11T08:46:14.729Z,7.47
2018-03-11T08:48:42.140Z,5.30
2018-03-11T08:51:10.331Z,5.70
2018-03-11T08:53:37.768Z,6.00
2018-03-11T08:56:05.200Z,5.73
2018-03-11T08:58:32.620Z,5.40
2018-03-11T09:01:00.821Z,5.60
2018-03-11T09:03:28.244Z,5.57
2018-03-11T09:05:55.688Z,5.33
2018-03-11T09:08:23.145Z,5.80
2018-03-11T09:10:50.561Z,5.43
2018-03-11T09:13:17.984Z,5.00
2018-03-11T09:15:46.270Z,4.13
2018-03-11T09:18:13.607Z,4.80
2018-03-11T09:20:41.036Z,4.57
2018-03-11T09:23:09.228Z,5.17
2018-03-11T09:25:36.680Z,4.53
2018-03-11T09:28:04.124Z,4.57
2018-03-11T09:30:31.564Z,4.80
2018-03-11T09:32:58.984Z,4.37
2018-03-11T09:35:26.456Z,6.63
2018-03-11T09:37:53.876Z,5.60
2018-03-11T09:40:21.312Z,5.90
2018-03-11T09:42:48.735Z,5.13
2018-03-11T09:45:16.167Z,5.20
2018-03-11T09:47:44.353Z,5.10
2018-03-11T09:50:11.783Z,4.93
2018-03-11T09:52:39.216Z,5.73
2018-03-11T09:55:07.401Z,6.27
2018-03-11T09:57:34.836Z,5.23
2018-03-11T10:00:02.279Z,5.30
2018-03-11T10:02:29.688Z,4.93
2018-03-11T10:04:57.891Z,5.13
2018-03-11T10:07:25.324Z,5.30
2018-03-11T10:09:52.805Z,4.83
2018-03-11T10:12:20.339Z,5.33
2018-03-11T10:14:47.776Z,4.70
2018-03-11T10:17:15.196Z,5.10
2018-03-11T10:19:42.615Z,4.77
2018-03-11T10:22:10.040Z,3.97
2018-03-11T10:24:38.233Z,5.10
2018-03-11T10:27:05.668Z,3.97
2018-03-11T10:29:33.088Z,3.40
2018-03-11T10:32:00.518Z,2.90
2018-03-11T10:34:28.708Z,3.00
2018-03-11T10:36:56.180Z,2.93
2018-03-11T10:39:23.614Z,3.10
2018-03-11T10:41:51.044Z,3.60
2018-03-11T10:44:18.472Z,3.70
2018-03-11T10:46:45.948Z,3.30
2018-03-11T10:49:13.432Z,3.50
2018-03-11T10:51:40.840Z,4.03
2018-03-11T10:54:08.292Z,4.10
2018-03-11T10:56:35.716Z,4.10
2018-03-11T10:59:03.135Z,4.07
2018-03-11T11:01:36.368Z,5.13
2018-03-11T11:04:04.563Z,4.40
2018-03-11T11:06:31.984Z,4.50
2018-03-11T11:09:00.179Z,4.33
2018-03-11T11:11:27.609Z,5.43
2018-03-11T11:13:55.168Z,4.77
2018-03-11T11:16:22.592Z,3.87
2018-03-11T11:18:50.013Z,4.40
2018-03-11T11:21:17.436Z,2.87
2018-03-11T11:23:45.636Z,2.57
2018-03-11T11:26:13.068Z,2.20
2018-03-11T11:28:41.248Z,3.70
2018-03-11T11:31:08.668Z,2.87
2018-03-11T11:33:36.142Z,3.27
2018-03-11T11:36:03.573Z,3.43
2018-03-11T11:38:31.004Z,3.83
2018-03-11T11:40:58.448Z,4.23
2018-03-11T11:43:25.861Z,5.13
2018-03-11T11:45:54.064Z,3.83
2018-03-11T11:48:21.501Z,4.27
2018-03-11T11:50:48.912Z,4.27
2018-03-11T11:53:16.340Z,4.20
2018-03-11T11:55:44.540Z,4.43
2018-03-11T11:58:12.034Z,3.50
2018-03-11T12:00:39.453Z,4.17
2018-03-11T12:03:06.904Z,4.00
2018-03-11T12:05:34.289Z,3.90
2018-03-11T12:08:01.716Z,3.17
2018-03-11T12:10:29.188Z,4.10
2018-03-11T12:12:56.635Z,4.37
2018-03-11T12:15:24.056Z,2.87
2018-03-11T12:17:51.500Z,3.10
2018-03-11T12:20:18.960Z,2.90
2018-03-11T12:22:46.384Z,3.10
2018-03-11T12:25:13.843Z,3.20
2018-03-11T12:27:41.312Z,2.50
2018-03-11T12:30:08.827Z,2.30
2018-03-11T12:32:36.712Z,2.30
2018-03-11T12:35:04.150Z,2.50
2018-03-11T12:37:31.558Z,2.17
2018-03-11T12:39:59.010Z,2.43
2018-03-11T12:42:26.463Z,2.60
2018-03-11T12:44:54.023Z,3.10
2018-03-11T12:47:22.220Z,2.67
2018-03-11T12:49:49.640Z,3.10
2018-03-11T12:52:17.840Z,3.30
2018-03-11T12:54:45.263Z,3.23
2018-03-11T12:57:12.740Z,2.50
2018-03-11T12:59:40.304Z,3.23
2018-03-11T13:02:07.734Z,3.40
2018-03-11T13:04:35.154Z,2.40
2018-03-11T13:07:02.594Z,5.33
2018-03-11T13:09:30.017Z,2.70
2018-03-11T13:11:57.462Z,4.17
2018-03-11T13:14:24.900Z,3.10
2018-03-11T13:16:53.084Z,3.20
2018-03-11T13:19:20.507Z,4.20
2018-03-11T13:21:47.945Z,2.93
2018-03-11T13:24:15.374Z,3.10
2018-03-11T13:26:42.810Z,2.53
2018-03-11T13:29:10.991Z,2.60
2018-03-11T13:31:38.428Z,2.53
2018-03-11T13:34:15.524Z,4.17
2018-03-11T13:36:42.949Z,3.07
2018-03-11T13:39:22.241Z,2.77
2018-03-11T13:41:49.680Z,3.03
2018-03-11T13:44:17.883Z,2.73
2018-03-11T13:46:57.269Z,2.80
2018-03-11T13:49:24.693Z,2.63
2018-03-11T13:52:04.832Z,2.57
2018-03-11T13:54:33.052Z,2.97
2018-03-11T13:57:12.300Z,3.00
2018-03-11T13:59:40.498Z,4.20
2018-03-11T14:02:07.916Z,4.00
2018-03-11T14:04:35.368Z,3.47
2018-03-11T14:07:02.788Z,2.70
2018-03-11T14:09:30.983Z,3.10
2018-03-11T14:11:58.419Z,5.67
2018-03-11T14:14:25.840Z,3.53
2018-03-11T14:16:54.038Z,2.83
2018-03-11T14:19:21.457Z,2.93
2018-03-11T14:21:48.884Z,3.10
2018-03-11T14:24:16.307Z,3.70
2018-03-11T14:26:44.521Z,3.53
2018-03-11T14:29:11.972Z,3.93
2018-03-11T14:31:39.400Z,3.10
2018-03-11T14:34:06.844Z,3.93
2018-03-11T14:36:34.276Z,3.30
2018-03-11T14:39:01.700Z,3.07
2018-03-11T14:41:29.135Z,3.33
2018-03-11T14:43:57.333Z,3.50
2018-03-11T14:46:24.852Z,3.13
2018-03-11T14:48:52.270Z,3.80
2018-03-11T14:51:20.464Z,3.67
2018-03-11T14:53:47.933Z,3.77
2018-03-11T14:56:15.348Z,3.43
2018-03-11T14:58:42.764Z,3.63
2018-03-11T15:01:10.210Z,3.33
2018-03-11T15:03:37.704Z,8.10
2018-03-11T15:06:05.150Z,3.60
2018-03-11T15:08:32.579Z,4.10
2018-03-11T15:11:00.020Z,3.60
2018-03-11T15:13:27.436Z,5.20
2018-03-11T15:15:54.864Z,4.17
2018-03-11T15:18:22.444Z,4.00
2018-03-11T15:20:49.880Z,4.67
2018-03-11T15:23:17.323Z,6.30
2018-03-11T15:25:44.765Z,4.83
2018-03-11T15:28:12.196Z,5.80
2018-03-11T15:30:39.624Z,4.80
2018-03-11T15:33:07.052Z,8.40
2018-03-11T15:35:34.513Z,8.20
2018-03-11T15:38:01.940Z,8.67
2018-03-11T15:40:29.385Z,6.50
2018-03-11T15:42:56.823Z,5.20
2018-03-11T15:45:24.232Z,4.77
2018-03-11T15:47:51.660Z,5.47
2018-03-11T15:50:19.077Z,5.17
2018-03-11T15:52:46.536Z,4.30
2018-03-11T15:55:13.948Z,4.60
2018-03-11T15:57:41.399Z,4.40
2018-03-11T16:00:08.846Z,4.30
2018-03-11T16:02:36.297Z,4.60
2018-03-11T16:05:03.748Z,6.77
2018-03-11T16:07:31.167Z,5.47
2018-03-11T16:09:58.605Z,5.30
2018-03-11T16:12:26.047Z,5.13
2018-03-11T16:14:53.468Z,5.80
2018-03-11T16:17:20.902Z,4.80
2018-03-11T16:19:48.324Z,6.30
2018-03-11T16:22:16.519Z,5.63
2018-03-11T16:24:44.006Z,4.60
2018-03-11T16:27:11.369Z,7.83
2018-03-11T16:29:39.569Z,5.10
2018-03-11T16:32:06.999Z,5.80
2018-03-11T16:34:34.417Z,5.97
2018-03-11T16:37:01.924Z,5.17
2018-03-11T16:39:29.352Z,5.33
2018-03-11T16:41:56.788Z,6.37
2018-03-11T16:44:24.224Z,8.57
2018-03-11T16:46:51.683Z,8.03
2018-03-11T16:49:19.120Z,9.80
2018-03-11T16:51:46.571Z,6.80
2018-03-11T16:54:14.012Z,6.37
2018-03-11T16:56:41.462Z,7.87
2018-03-11T16:59:08.877Z,6.60
2018-03-11T17:01:36.312Z,6.57
2018-03-11T17:04:03.736Z,5.60
2018-03-11T17:06:31.221Z,7.13
2018-03-11T17:08:58.589Z,6.27
2018-03-11T17:11:26.018Z,6.97
2018-03-11T17:13:53.442Z,7.63
2018-03-11T17:16:20.859Z,7.87
2018-03-11T17:18:48.285Z,8.27
2018-03-11T17:21:15.737Z,8.90
2018-03-11T17:23:43.179Z,11.73
2018-03-11T17:26:10.604Z,9.70
2018-03-11T17:28:38.046Z,9.57
2018-03-11T17:31:05.484Z,10.00
2018-03-11T17:33:32.932Z,11.70
2018-03-11T17:36:00.394Z,11.83
2018-03-11T17:38:27.844Z,10.90
2018-03-11T17:40:55.694Z,10.93
2018-03-11T17:43:23.113Z,10.53
2018-03-11T17:45:50.544Z,10.67
2018-03-11T17:48:18.766Z,12.50
2018-03-11T17:50:46.173Z,14.27
2018-03-11T17:53:13.623Z,12.03
2018-03-11T17:55:41.092Z,12.73
2018-03-11T17:58:08.620Z,14.30
2018-03-11T18:00:36.048Z,13.70
2018-03-11T18:03:03.504Z,13.73
2018-03-11T18:05:30.942Z,15.10
2018-03-11T18:07:58.375Z,18.30
2018-03-11T18:10:25.869Z,18.97
2018-03-11T18:12:53.308Z,18.87
2018-03-11T18:15:21.520Z,21.87
2018-03-11T18:17:48.988Z,18.30
2018-03-11T18:20:16.383Z,18.70
2018-03-11T18:22:43.822Z,17.93
2018-03-11T18:25:11.252Z,17.20
2018-03-11T18:27:38.684Z,19.27
2018-03-11T18:30:06.894Z,16.63
2018-03-11T18:32:34.321Z,18.10
2018-03-11T18:35:01.770Z,17.40
2018-03-11T18:37:29.242Z,18.57
2018-03-11T18:39:56.656Z,18.33
2018-03-11T18:42:24.220Z,21.47
2018-03-11T18:44:51.667Z,17.17
2018-03-11T18:47:19.112Z,16.30
2018-03-11T18:49:46.624Z,18.10
2018-03-11T18:52:14.072Z,16.37
2018-03-11T18:54:41.524Z,16.87
2018-03-11T18:57:08.950Z,19.23
2018-03-11T18:59:36.388Z,15.97
2018-03-11T19:02:03.904Z,14.17
2018-03-11T19:04:31.357Z,14.80
2018-03-11T19:06:58.776Z,15.03
2018-03-11T19:09:26.208Z,15.60
2018-03-11T19:11:54.400Z,15.27
2018-03-11T19:14:21.852Z,14.33
2018-03-11T19:16:49.296Z,18.00
2018-03-11T19:19:16.808Z,13.97
2018-03-11T19:21:44.247Z,12.87
2018-03-11T19:24:11.690Z,11.37
2018-03-11T19:26:39.138Z,12.87
2018-03-11T19:29:06.579Z,13.07
2018-03-11T19:31:34.016Z,13.53
2018-03-11T19:34:01.448Z,12.77
2018-03-11T19:36:28.900Z,12.23
2018-03-11T19:38:56.371Z,13.80
2018-03-11T19:41:23.820Z,12.77
2018-03-11T19:43:51.265Z,12.50
2018-03-11T19:46:18.700Z,14.17
2018-03-11T19:48:46.148Z,13.63
2018-03-11T19:51:13.588Z,15.13
2018-03-11T19:53:41.040Z,13.63
2018-03-11T19:56:08.480Z,15.37
2018-03-11T19:58:35.905Z,16.77
2018-03-11T20:01:03.352Z,11.80
2018-03-11T20:03:30.812Z,13.53
2018-03-11T20:05:58.248Z,14.10
2018-03-11T20:08:25.686Z,14.07
2018-03-11T20:10:53.122Z,15.37
2018-03-11T20:13:20.552Z,15.37
2018-03-11T20:15:47.997Z,14.90
2018-03-11T20:18:15.456Z,13.13
2018-03-11T20:20:42.887Z,13.37
2018-03-11T20:23:10.323Z,13.97
2018-03-11T20:25:37.735Z,13.37
2018-03-11T20:28:05.180Z,13.20
2018-03-11T20:30:32.596Z,14.47
2018-03-11T20:33:00.800Z,12.10
2018-03-11T20:35:28.224Z,12.83
2018-03-11T20:37:55.667Z,15.17
2018-03-11T20:40:23.130Z,15.43
2018-03-11T20:42:50.549Z,16.33
2018-03-11T20:45:18.029Z,15.07
2018-03-11T20:47:45.464Z,14.63
2018-03-11T20:50:12.920Z,14.87
2018-03-11T20:52:40.352Z,15.37
2018-03-11T20:55:07.788Z,15.03
2018-03-11T20:57:35.224Z,16.43
2018-03-11T21:00:02.632Z,15.40
2018-03-11T21:02:30.064Z,18.83
2018-03-11T21:04:57.505Z,19.30
2018-03-11T21:07:24.952Z,18.43
2018-03-11T21:09:52.384Z,20.30
2018-03-11T21:12:20.582Z,20.70
2018-03-11T21:14:48.005Z,21.03
2018-03-11T21:17:15.452Z,27.10
2018-03-11T21:19:42.884Z,26.00
2018-03-11T21:22:10.321Z,26.90
2018-03-11T21:24:37.768Z,28.50
2018-03-11T21:27:05.212Z,26.70
2018-03-11T21:29:32.644Z,27.40
2018-03-11T21:32:00.132Z,27.40
2018-03-11T21:34:27.660Z,26.80
2018-03-11T21:36:55.107Z,26.30
2018-03-11T21:39:22.534Z,27.53
2018-03-11T21:41:49.960Z,28.30
2018-03-11T21:44:17.416Z,28.03
2018-03-11T21:46:44.824Z,29.23
2018-03-11T21:49:12.266Z,30.80
2018-03-11T21:51:40.456Z,31.60
2018-03-11T21:54:07.905Z,31.53
2018-03-11T21:56:35.360Z,32.50
2018-03-11T21:59:02.789Z,31.13
2018-03-11T22:01:30.222Z,30.23
2018-03-11T22:03:57.691Z,31.87
2018-03-11T22:06:25.079Z,34.90
2018-03-11T22:08:52.517Z,33.97
2018-03-11T22:11:20.712Z,33.07
2018-03-11T22:13:48.124Z,33.07
2018-03-11T22:16:15.544Z,32.50
2018-03-11T22:18:43.751Z,31.33
2018-03-11T22:21:11.164Z,32.80
2018-03-11T22:23:38.606Z,30.03
2018-03-11T22:26:06.792Z,31.90
2018-03-11T22:28:34.228Z,29.27
2018-03-11T22:31:01.687Z,32.53
2018-03-11T22:33:29.148Z,30.10
2018-03-11T22:35:56.566Z,29.30
2018-03-11T22:38:23.993Z,32.03
2018-03-11T22:40:51.430Z,30.53
2018-03-11T22:43:18.846Z,26.57
2018-03-11T22:45:47.027Z,35.83
2018-03-11T22:48:14.448Z,30.87
2018-03-11T22:50:42.645Z,29.17
2018-03-11T22:53:10.076Z,27.60
2018-03-11T22:55:37.511Z,26.80
2018-03-11T22:58:04.974Z,28.63
2018-03-11T23:00:32.391Z,28.17
2018-03-11T23:02:59.831Z,28.67
2018-03-11T23:05:27.268Z,28.03
2018-03-11T23:07:54.725Z,27.93
2018-03-11T23:10:23.712Z,30.77
2018-03-11T23:12:51.145Z,29.93
2018-03-11T23:15:18.586Z,29.17
2018-03-11T23:17:46.000Z,34.63
2018-03-11T23:20:14.193Z,33.57
2018-03-11T23:22:41.629Z,31.30
2018-03-11T23:25:09.092Z,30.57
2018-03-11T23:27:36.540Z,34.17
2018-03-11T23:30:03.952Z,33.53
2018-03-11T23:32:31.380Z,32.93
2018-03-11T23:34:58.824Z,38.80
2018-03-11T23:37:26.239Z,31.60
2018-03-11T23:39:54.441Z,33.33
2018-03-11T23:42:21.884Z,33.57
2018-03-11T23:44:49.346Z,36.13
2018-03-11T23:47:16.778Z,36.70
2018-03-11T23:49:44.191Z,34.03
2018-03-11T23:52:11.620Z,31.60
2018-03-11T23:54:39.812Z,30.70
2018-03-11T23:57:07.248Z,30.70
2018-03-11T23:59:34.681Z,33.17
